createdAt,value
2023-05-15T00:00:48.372Z,159.15
2023-05-15T00:01:48.368Z,157.51
2023-05-15T00:02:48.445Z,156.56
2023-05-15T00:03:48.460Z,159.51
2023-05-15T00:04:48.449Z,163.94
2023-05-15T00:05:48.441Z,160.50
2023-05-15T00:06:48.483Z,160.50
2023-05-15T00:07:48.540Z,157.14
2023-05-15T00:08:48.563Z,156.34
2023-05-15T00:09:48.654Z,158.79
2023-05-15T00:11:00.878Z,163.00
2023-05-15T00:11:49.683Z,155.98
2023-05-15T00:12:48.623Z,154.63
2023-05-15T00:13:48.635Z,152.59
2023-05-15T00:14:48.625Z,152.63
2023-05-15T00:15:48.611Z,153.24
2023-05-15T00:16:48.629Z,156.61
2023-05-15T00:17:48.644Z,166.14
2023-05-15T00:18:48.633Z,169.46
2023-05-15T00:19:48.594Z,170.03
2023-05-15T00:20:48.581Z,165.33
2023-05-15T00:21:48.592Z,162.00
2023-05-15T00:22:48.583Z,162.66
2023-05-15T00:23:48.617Z,164.76
2023-05-15T00:24:48.548Z,171.23
2023-05-15T00:25:48.580Z,175.58
2023-05-15T00:26:48.623Z,177.62
2023-05-15T00:27:48.625Z,178.70
2023-05-15T00:28:48.585Z,178.58
2023-05-15T00:29:48.596Z,179.13
2023-05-15T00:30:48.609Z,175.15
2023-05-15T00:31:48.762Z,176.15
2023-05-15T00:32:48.713Z,180.11
2023-05-15T00:33:48.636Z,184.28
2023-05-15T00:34:48.658Z,186.06
2023-05-15T00:35:48.691Z,188.14
2023-05-15T00:36:48.713Z,188.62
2023-05-15T00:37:48.702Z,186.37
2023-05-15T00:38:48.706Z,185.63
2023-05-15T00:39:48.748Z,179.95
2023-05-15T00:40:48.751Z,175.32
2023-05-15T00:41:48.865Z,171.91
2023-05-15T00:42:48.785Z,171.85
2023-05-15T00:43:48.852Z,171.71
2023-05-15T00:44:48.917Z,172.13
2023-05-15T00:45:48.934Z,164.77
2023-05-15T00:46:49.024Z,174.24
2023-05-15T00:47:49.007Z,179.40
2023-05-15T00:48:49.035Z,182.56
2023-05-15T00:49:49.040Z,173.07
2023-05-15T00:50:49.101Z,169.77
2023-05-15T00:51:49.148Z,159.94
2023-05-15T00:52:49.173Z,159.31
2023-05-15T00:53:49.224Z,157.23
2023-05-15T00:54:49.194Z,155.75
2023-05-15T00:55:49.181Z,156.17
2023-05-15T00:56:49.280Z,157.13
2023-05-15T00:57:49.276Z,150.90
2023-05-15T00:58:49.305Z,147.37
2023-05-15T00:59:49.379Z,146.83
2023-05-15T01:00:49.474Z,151.67
2023-05-15T01:01:49.488Z,154.76
2023-05-15T01:02:49.648Z,158.62
2023-05-15T01:03:49.967Z,165.19
2023-05-15T01:04:49.660Z,174.20
2023-05-15T01:05:49.725Z,173.41
2023-05-15T01:06:49.787Z,171.69
2023-05-15T01:07:49.834Z,159.93
2023-05-15T01:08:49.901Z,143.31
2023-05-15T01:09:50.002Z,138.06
2023-05-15T01:10:50.006Z,127.88
2023-05-15T01:11:50.087Z,129.52
2023-05-15T01:12:50.088Z,133.61
2023-05-15T01:13:50.159Z,138.36
2023-05-15T01:14:50.183Z,144.46
2023-05-15T01:15:50.156Z,150.27
2023-05-15T01:16:50.272Z,141.38
2023-05-15T01:17:50.312Z,141.12
2023-05-15T01:18:50.327Z,148.16
2023-05-15T01:19:50.527Z,149.45
2023-05-15T01:20:50.330Z,154.46
2023-05-15T01:21:50.369Z,149.73
2023-05-15T01:22:50.402Z,147.52
2023-05-15T01:23:50.528Z,144.92
2023-05-15T01:24:50.526Z,143.26
2023-05-15T01:25:50.583Z,141.17
2023-05-15T01:26:50.686Z,143.50
2023-05-15T01:27:50.658Z,144.61
2023-05-15T01:28:50.979Z,144.71
2023-05-15T01:29:50.714Z,147.79
2023-05-15T01:30:50.767Z,153.72
2023-05-15T01:31:50.834Z,154.40
2023-05-15T01:32:50.888Z,157.40
2023-05-15T01:33:50.889Z,160.78
2023-05-15T01:34:50.892Z,151.87
2023-05-15T01:35:50.933Z,146.79
2023-05-15T01:36:50.961Z,142.64
2023-05-15T01:37:51.022Z,143.37
2023-05-15T01:38:51.076Z,148.42
2023-05-15T01:39:51.100Z,152.94
2023-05-15T01:40:51.215Z,158.58
2023-05-15T01:41:51.266Z,159.75
2023-05-15T01:42:51.231Z,157.01
2023-05-15T01:43:51.202Z,152.27
2023-05-15T01:44:51.222Z,145.14
2023-05-15T01:45:51.258Z,143.32
2023-05-15T01:46:51.411Z,142.88
2023-05-15T01:47:51.362Z,138.73
2023-05-15T01:48:51.356Z,143.52
2023-05-15T01:49:51.620Z,149.41
2023-05-15T01:50:51.382Z,146.55
2023-05-15T01:51:51.472Z,150.25
2023-05-15T01:52:51.483Z,149.75
2023-05-15T01:53:51.578Z,158.01
2023-05-15T01:54:51.657Z,161.56
2023-05-15T01:55:51.702Z,168.31
2023-05-15T01:56:51.727Z,167.61
2023-05-15T01:57:51.732Z,162.85
2023-05-15T01:58:51.791Z,165.79
2023-05-15T01:59:51.875Z,161.69
2023-05-15T02:00:51.845Z,163.91
2023-05-15T02:01:51.980Z,168.44
2023-05-15T02:02:52.056Z,169.02
2023-05-15T02:03:52.141Z,167.38
2023-05-15T02:04:52.023Z,160.79
2023-05-15T02:05:52.115Z,156.56
2023-05-15T02:06:52.095Z,154.10
2023-05-15T02:07:52.132Z,154.07
2023-05-15T02:08:52.172Z,154.59
2023-05-15T02:09:52.157Z,156.65
2023-05-15T02:10:52.174Z,155.76
2023-05-15T02:11:52.231Z,153.65
2023-05-15T02:12:52.276Z,155.58
2023-05-15T02:13:52.334Z,163.94
2023-05-15T02:14:52.442Z,167.62
2023-05-15T02:15:52.508Z,174.20
2023-05-15T02:16:52.562Z,176.45
2023-05-15T02:17:52.699Z,171.59
2023-05-15T02:18:52.772Z,172.70
2023-05-15T02:19:52.607Z,174.64
2023-05-15T02:20:52.631Z,174.43
2023-05-15T02:21:52.613Z,176.92
2023-05-15T02:23:00.216Z,175.00
2023-05-15T02:23:52.571Z,173.48
2023-05-15T02:24:52.578Z,167.08
2023-05-15T02:25:52.614Z,161.92
2023-05-15T02:26:52.549Z,153.15
2023-05-15T02:27:52.548Z,152.61
2023-05-15T02:28:52.529Z,152.58
2023-05-15T02:29:52.546Z,160.73
2023-05-15T02:30:52.493Z,164.43
2023-05-15T02:31:52.693Z,173.96
2023-05-15T02:32:52.606Z,184.19
2023-05-15T02:33:52.511Z,179.66
2023-05-15T02:34:52.502Z,176.74
2023-05-15T02:35:52.480Z,172.12
2023-05-15T02:36:52.573Z,172.48
2023-05-15T02:37:52.626Z,183.54
2023-05-15T02:38:52.626Z,191.40
2023-05-15T02:39:52.669Z,195.92
2023-05-15T02:40:52.717Z,195.11
2023-05-15T02:41:52.779Z,195.08
2023-05-15T02:42:52.792Z,193.92
2023-05-15T02:43:52.857Z,188.85
2023-05-15T02:44:52.903Z,187.53
2023-05-15T02:45:53.043Z,188.20
2023-05-15T02:46:52.995Z,184.32
2023-05-15T02:47:53.120Z,174.35
2023-05-15T02:48:53.067Z,175.19
2023-05-15T02:49:53.140Z,171.01
2023-05-15T02:50:53.134Z,169.51
2023-05-15T02:51:53.153Z,161.43
2023-05-15T02:52:53.204Z,157.16
2023-05-15T02:53:53.238Z,154.05
2023-05-15T02:54:53.274Z,155.16
2023-05-15T02:55:53.285Z,153.96
2023-05-15T02:56:53.343Z,146.42
2023-05-15T02:57:53.368Z,142.16
2023-05-15T02:58:53.402Z,139.81
2023-05-15T02:59:53.454Z,140.49
2023-05-15T03:00:53.542Z,143.07
2023-05-15T03:01:53.509Z,143.25
2023-05-15T03:02:53.584Z,148.48
2023-05-15T03:03:53.652Z,145.35
2023-05-15T03:04:54.361Z,151.82
2023-05-15T03:05:53.618Z,146.40
2023-05-15T03:06:53.615Z,132.89
2023-05-15T03:07:53.616Z,132.74
2023-05-15T03:08:53.670Z,151.61
2023-05-15T03:09:53.749Z,166.04
2023-05-15T03:10:53.758Z,172.06
2023-05-15T03:13:13.249Z,25.00
2023-05-15T03:14:13.214Z,25.00
2023-05-15T03:15:13.229Z,25.00
2023-05-15T03:16:13.237Z,25.00
2023-05-15T03:17:13.288Z,25.00
2023-05-15T03:18:13.270Z,71.06
2023-05-15T03:19:13.226Z,108.08
2023-05-15T03:20:13.192Z,168.53
2023-05-15T03:21:13.167Z,206.82
2023-05-15T03:22:13.185Z,222.84
2023-05-15T03:23:13.210Z,202.63
2023-05-15T03:24:13.169Z,163.81
2023-05-15T03:25:13.192Z,125.59
2023-05-15T03:26:13.174Z,89.61
2023-05-15T03:27:13.209Z,60.95
2023-05-15T03:28:13.116Z,44.54
2023-05-15T03:29:13.109Z,80.86
2023-05-15T03:30:13.137Z,121.76
2023-05-15T03:31:13.157Z,166.86
2023-05-15T03:32:13.185Z,186.47
2023-05-15T03:33:13.175Z,200.20
2023-05-15T03:34:13.075Z,225.61
2023-05-15T03:35:13.180Z,219.76
2023-05-15T03:36:13.103Z,235.26
2023-05-15T03:37:13.471Z,251.15
2023-05-15T03:38:13.077Z,250.47
2023-05-15T03:39:13.105Z,250.00
2023-05-15T03:40:13.057Z,253.99
2023-05-15T03:41:13.067Z,263.74
2023-05-15T03:42:13.111Z,222.89
2023-05-15T03:43:13.072Z,204.68
2023-05-15T03:44:12.997Z,207.51
2023-05-15T03:45:13.050Z,205.03
2023-05-15T03:46:13.076Z,214.19
2023-05-15T03:47:13.033Z,236.10
2023-05-15T03:48:13.057Z,217.98
2023-05-15T03:49:12.976Z,187.92
2023-05-15T03:50:12.986Z,203.10
2023-05-15T03:51:13.009Z,218.53
2023-05-15T03:52:13.012Z,227.80
2023-05-15T03:53:12.989Z,235.87
2023-05-15T03:54:12.968Z,249.60
2023-05-15T03:55:12.979Z,221.14
2023-05-15T03:56:13.015Z,196.99
2023-05-15T03:57:13.130Z,208.62
2023-05-15T03:58:13.050Z,245.06
2023-05-15T03:59:13.126Z,255.27
2023-05-15T04:00:13.030Z,267.76
2023-05-15T04:01:13.048Z,267.47
2023-05-15T04:02:13.129Z,282.13
2023-05-15T04:03:13.293Z,272.81
2023-05-15T04:04:13.116Z,260.95
2023-05-15T04:05:13.199Z,243.43
2023-05-15T04:06:13.183Z,236.46
2023-05-15T04:07:13.195Z,225.13
2023-05-15T04:08:13.196Z,226.18
2023-05-15T04:09:13.268Z,215.00
2023-05-15T04:10:13.275Z,212.08
2023-05-15T04:11:13.299Z,208.33
2023-05-15T04:12:13.337Z,204.18
2023-05-15T04:14:32.790Z,25.00
2023-05-15T04:15:32.760Z,25.00
2023-05-15T04:16:32.843Z,25.00
2023-05-15T04:17:32.789Z,25.00
2023-05-15T04:18:32.762Z,25.00
2023-05-15T04:19:32.737Z,27.91
2023-05-15T04:20:32.767Z,31.55
2023-05-15T04:21:32.744Z,4.72
2023-05-15T04:22:32.805Z,6.80
2023-05-15T04:23:32.719Z,31.50
2023-05-15T04:24:33.031Z,68.56
2023-05-15T04:25:32.737Z,25.00
2023-05-15T04:26:32.697Z,119.80
2023-05-15T04:27:32.730Z,65.14
2023-05-15T04:28:32.686Z,17.03
2023-05-15T04:29:32.698Z,0.00
2023-05-15T04:30:32.689Z,0.00
2023-05-15T04:31:32.910Z,0.00
2023-05-15T04:32:32.748Z,0.00
2023-05-15T04:33:32.679Z,24.88
2023-05-15T04:34:32.646Z,119.91
2023-05-15T04:35:32.619Z,222.31
2023-05-15T04:36:32.653Z,250.00
2023-05-15T04:37:32.660Z,250.71
2023-05-15T04:38:32.965Z,252.57
2023-05-15T04:39:32.645Z,261.76
2023-05-15T04:40:32.597Z,254.73
2023-05-15T04:41:32.633Z,250.00
2023-05-15T04:42:32.618Z,249.43
2023-05-15T04:43:32.594Z,242.83
2023-05-15T04:44:32.610Z,230.75
2023-05-15T04:45:32.604Z,202.04
2023-05-15T04:46:32.744Z,188.40
2023-05-15T04:47:32.668Z,205.41
2023-05-15T04:48:32.573Z,178.43
2023-05-15T04:49:32.567Z,121.76
2023-05-15T04:50:32.587Z,71.39
2023-05-15T04:51:32.591Z,40.24
2023-05-15T04:52:32.559Z,60.46
2023-05-15T04:53:32.614Z,120.90
2023-05-15T04:54:32.809Z,150.82
2023-05-15T04:55:33.700Z,181.27
2023-05-15T04:56:32.533Z,203.55
2023-05-15T04:57:32.544Z,208.75
2023-05-15T04:58:32.524Z,263.99
2023-05-15T04:59:32.492Z,244.59
2023-05-15T05:00:32.503Z,241.64
2023-05-15T05:01:32.550Z,241.11
2023-05-15T05:02:32.547Z,235.82
2023-05-15T05:03:32.500Z,241.99
2023-05-15T05:04:32.466Z,217.98
2023-05-15T05:05:32.440Z,150.90
2023-05-15T05:06:32.440Z,107.84
2023-05-15T05:07:32.465Z,74.15
2023-05-15T05:08:32.529Z,34.22
2023-05-15T05:09:32.442Z,25.42
2023-05-15T05:10:32.534Z,24.39
2023-05-15T05:11:32.530Z,25.18
2023-05-15T05:12:32.693Z,27.87
2023-05-15T05:13:32.565Z,41.88
2023-05-15T05:14:32.588Z,36.96
2023-05-15T05:15:32.648Z,36.87
2023-05-15T05:16:32.694Z,58.17
2023-05-15T05:17:32.634Z,61.33
2023-05-15T05:18:32.636Z,49.61
2023-05-15T05:19:32.698Z,66.55
2023-05-15T05:20:32.713Z,105.20
2023-05-15T05:21:32.720Z,103.24
2023-05-15T05:22:32.864Z,102.80
2023-05-15T05:23:32.770Z,113.14
2023-05-15T05:24:32.767Z,171.48
2023-05-15T05:25:32.839Z,180.90
2023-05-15T05:26:32.765Z,165.24
2023-05-15T05:27:32.907Z,168.55
2023-05-15T05:28:32.964Z,180.61
2023-05-15T05:29:32.958Z,226.48
2023-05-15T05:30:33.045Z,239.96
2023-05-15T05:31:33.117Z,224.52
2023-05-15T05:32:33.135Z,224.82
2023-05-15T05:33:33.081Z,165.65
2023-05-15T05:34:33.120Z,83.28
2023-05-15T05:35:33.028Z,62.20
2023-05-15T05:36:33.024Z,70.76
2023-05-15T05:37:33.056Z,96.82
2023-05-15T05:38:33.172Z,122.08
2023-05-15T05:39:32.959Z,146.57
2023-05-15T05:40:33.056Z,155.69
2023-05-15T05:41:33.027Z,160.61
2023-05-15T05:42:33.032Z,137.20
2023-05-15T05:43:32.986Z,125.65
2023-05-15T05:44:32.983Z,118.77
2023-05-15T05:45:32.979Z,78.15
2023-05-15T05:47:54.389Z,25.00
2023-05-15T05:48:54.254Z,25.00
2023-05-15T05:49:54.939Z,25.00
2023-05-15T05:50:54.060Z,25.00
2023-05-15T05:51:54.232Z,25.00
2023-05-15T05:52:53.342Z,25.00
2023-05-15T05:53:53.288Z,25.00
2023-05-15T05:54:53.259Z,25.00
2023-05-15T05:55:53.275Z,25.00
2023-05-15T05:56:53.370Z,25.00
2023-05-15T05:57:53.429Z,25.00
2023-05-15T05:58:53.395Z,25.00
2023-05-15T05:59:53.241Z,25.00
2023-05-15T06:00:53.241Z,25.00
2023-05-15T06:01:54.132Z,25.00
2023-05-15T06:02:53.394Z,25.00
2023-05-15T06:03:53.476Z,25.00
2023-05-15T06:04:53.208Z,25.00
2023-05-15T06:05:53.142Z,25.00
2023-05-15T06:06:53.252Z,25.00
2023-05-15T06:07:54.242Z,25.00
2023-05-15T06:08:55.645Z,25.00
2023-05-15T06:09:53.303Z,25.00
2023-05-15T06:10:53.424Z,25.00
2023-05-15T06:11:53.360Z,25.00
2023-05-15T06:12:53.262Z,25.00
2023-05-15T06:13:54.009Z,25.00
2023-05-15T06:14:53.278Z,25.00
2023-05-15T06:15:53.369Z,25.00
2023-05-15T06:16:53.447Z,25.00
2023-05-15T06:17:53.471Z,25.00
2023-05-15T06:18:54.740Z,25.00
2023-05-15T06:19:53.390Z,25.00
2023-05-15T06:20:53.283Z,25.00
2023-05-15T06:21:54.136Z,25.00
2023-05-15T06:22:54.261Z,25.00
2023-05-15T06:23:54.293Z,25.00
2023-05-15T06:24:54.279Z,25.00
2023-05-15T06:25:53.348Z,25.00
2023-05-15T06:26:53.417Z,25.00
2023-05-15T06:27:53.384Z,25.00
2023-05-15T06:28:53.371Z,25.00
2023-05-15T06:29:53.312Z,25.00
2023-05-15T06:30:53.368Z,25.00
2023-05-15T06:31:53.325Z,25.00
2023-05-15T06:32:54.179Z,25.00
2023-05-15T06:33:53.325Z,25.00
2023-05-15T06:34:54.262Z,25.00
2023-05-15T06:35:53.339Z,25.00
2023-05-15T06:36:53.655Z,25.00
2023-05-15T06:37:53.271Z,25.00
2023-05-15T06:38:53.330Z,25.00
2023-05-15T06:39:54.089Z,130.94
2023-05-15T06:40:53.268Z,39.39
2023-05-15T06:41:53.356Z,15.52
2023-05-15T06:42:53.377Z,34.74
2023-05-15T06:43:54.707Z,0.00
2023-05-15T06:44:53.513Z,0.00
2023-05-15T06:45:53.427Z,0.00
2023-05-15T06:46:53.552Z,0.00
2023-05-15T06:47:53.572Z,0.00
2023-05-15T06:48:53.857Z,0.00
2023-05-15T06:49:53.523Z,18.49
2023-05-15T06:50:53.658Z,1.73
2023-05-15T06:51:54.279Z,0.77
2023-05-15T06:52:53.557Z,18.28
2023-05-15T06:53:53.614Z,0.00
2023-05-15T06:54:53.484Z,0.00
2023-05-15T06:55:54.291Z,0.00
2023-05-15T06:56:54.226Z,0.00
2023-05-15T06:57:54.184Z,0.00
2023-05-15T06:58:53.502Z,0.00
2023-05-15T06:59:53.516Z,0.00
2023-05-15T07:00:54.216Z,0.00
2023-05-15T07:01:54.325Z,0.00
2023-05-15T07:02:54.280Z,0.00
2023-05-15T07:03:54.229Z,0.00
2023-05-15T07:04:54.280Z,0.00
2023-05-15T07:05:54.310Z,0.00
2023-05-15T07:06:53.365Z,0.00
2023-05-15T07:07:54.332Z,0.00
2023-05-15T07:08:54.276Z,0.00
2023-05-15T07:09:54.285Z,0.00
2023-05-15T07:10:54.358Z,0.00
2023-05-15T07:11:53.455Z,0.00
2023-05-15T07:12:53.402Z,0.00
2023-05-15T07:13:53.964Z,0.00
2023-05-15T07:14:53.404Z,0.00
2023-05-15T07:15:54.249Z,12.09
2023-05-15T07:16:53.448Z,55.84
2023-05-15T07:17:53.543Z,101.59
2023-05-15T07:18:53.480Z,53.74
2023-05-15T07:19:53.553Z,0.00
2023-05-15T07:20:54.326Z,0.00
2023-05-15T07:21:53.346Z,0.00
2023-05-15T07:22:56.715Z,0.00
2023-05-15T07:23:53.405Z,0.00
2023-05-15T07:24:53.455Z,0.00
2023-05-15T07:25:53.464Z,0.00
2023-05-15T07:26:58.876Z,0.00
2023-05-15T07:27:53.504Z,0.00
2023-05-15T07:28:53.388Z,0.00
2023-05-15T07:29:53.509Z,0.00
2023-05-15T07:30:53.402Z,0.00
2023-05-15T07:31:53.504Z,0.00
2023-05-15T07:32:53.482Z,0.00
2023-05-15T07:33:53.747Z,0.00
2023-05-15T07:34:53.391Z,0.00
2023-05-15T07:35:53.299Z,0.00
2023-05-15T07:36:55.344Z,0.00
2023-05-15T07:37:53.477Z,0.00
2023-05-15T07:38:53.431Z,0.00
2023-05-15T07:39:53.494Z,0.00
2023-05-15T07:40:53.375Z,0.00
2023-05-15T07:41:53.445Z,0.00
2023-05-15T07:42:53.409Z,0.00
2023-05-15T07:43:53.355Z,0.00
2023-05-15T07:44:53.431Z,0.00
2023-05-15T07:45:53.513Z,0.00
2023-05-15T07:46:53.222Z,0.00
2023-05-15T07:47:53.405Z,0.00
2023-05-15T07:48:53.307Z,0.00
2023-05-15T07:49:53.468Z,0.00
2023-05-15T07:50:54.459Z,0.00
2023-05-15T07:51:53.362Z,0.00
2023-05-15T07:52:53.216Z,0.00
2023-05-15T07:53:54.720Z,0.00
2023-05-15T07:54:53.780Z,0.00
2023-05-15T07:55:53.570Z,0.00
2023-05-15T07:56:53.491Z,0.00
2023-05-15T07:57:54.058Z,0.00
2023-05-15T07:58:53.691Z,0.00
2023-05-15T07:59:53.511Z,0.00
2023-05-15T08:00:54.197Z,0.00
2023-05-15T08:01:54.216Z,0.00
2023-05-15T08:02:53.401Z,0.00
2023-05-15T08:03:53.529Z,0.00
2023-05-15T08:04:53.383Z,0.00
2023-05-15T08:05:53.464Z,0.00
2023-05-15T08:06:53.323Z,0.00
2023-05-15T08:07:54.348Z,0.00
2023-05-15T08:08:53.354Z,0.00
2023-05-15T08:09:53.434Z,0.00
2023-05-15T08:10:53.247Z,0.00
2023-05-15T08:11:53.277Z,0.00
2023-05-15T08:12:53.371Z,0.00
2023-05-15T08:13:53.457Z,0.00
2023-05-15T08:14:53.412Z,0.00
2023-05-15T08:15:54.174Z,0.00
2023-05-15T08:16:53.258Z,0.00
2023-05-15T08:17:53.319Z,0.00
2023-05-15T08:18:53.420Z,0.00
2023-05-15T08:19:53.209Z,0.00
2023-05-15T08:20:53.826Z,0.00
2023-05-15T08:21:53.528Z,0.00
2023-05-15T08:22:53.429Z,0.00
2023-05-15T08:23:53.963Z,0.00
2023-05-15T08:24:53.614Z,0.00
2023-05-15T08:25:53.605Z,0.00
2023-05-15T08:26:53.738Z,0.00
2023-05-15T08:27:53.854Z,0.00
2023-05-15T08:28:53.772Z,0.00
2023-05-15T08:29:54.288Z,0.00
2023-05-15T08:30:53.817Z,0.00
2023-05-15T08:31:53.804Z,0.00
2023-05-15T08:32:53.963Z,0.00
2023-05-15T08:33:54.636Z,0.00
2023-05-15T08:34:53.756Z,0.00
2023-05-15T08:35:54.867Z,0.00
2023-05-15T08:36:53.832Z,0.00
2023-05-15T08:37:53.988Z,0.00
2023-05-15T08:38:54.764Z,0.00
2023-05-15T08:39:55.184Z,0.00
2023-05-15T08:40:53.925Z,0.00
2023-05-15T08:41:53.970Z,0.00
2023-05-15T08:42:53.838Z,0.00
2023-05-15T08:43:53.797Z,0.00
2023-05-15T08:44:53.915Z,0.00
2023-05-15T08:45:53.861Z,0.00
2023-05-15T08:46:53.863Z,0.00
2023-05-15T08:47:53.953Z,0.00
2023-05-15T08:48:56.253Z,0.00
2023-05-15T08:49:54.381Z,0.00
2023-05-15T08:50:54.264Z,0.00
2023-05-15T08:51:53.955Z,0.00
2023-05-15T08:52:54.152Z,0.00
2023-05-15T08:53:54.034Z,0.00
2023-05-15T08:54:54.369Z,0.00
2023-05-15T08:55:54.110Z,0.00
2023-05-15T08:56:54.090Z,0.00
2023-05-15T08:57:54.074Z,0.00
2023-05-15T08:58:54.712Z,0.00
2023-05-15T08:59:55.332Z,0.00
2023-05-15T09:00:54.205Z,0.00
2023-05-15T09:01:54.169Z,0.00
2023-05-15T09:02:54.850Z,0.00
2023-05-15T09:03:54.741Z,0.00
2023-05-15T09:04:55.738Z,0.00
2023-05-15T09:05:54.124Z,0.00
2023-05-15T09:06:54.047Z,0.00
2023-05-15T09:07:54.059Z,0.00
2023-05-15T09:08:54.768Z,0.00
2023-05-15T09:09:54.371Z,0.00
2023-05-15T09:10:54.108Z,0.00
2023-05-15T09:11:54.102Z,0.00
2023-05-15T09:12:54.138Z,0.00
2023-05-15T09:13:54.256Z,0.00
2023-05-15T09:14:54.751Z,0.00
2023-05-15T09:15:55.179Z,0.00
2023-05-15T09:16:54.441Z,0.00
2023-05-15T09:17:54.388Z,0.00
2023-05-15T09:18:54.497Z,0.00
2023-05-15T09:19:54.444Z,0.00
2023-05-15T09:20:56.255Z,0.00
2023-05-15T09:21:54.584Z,0.00
2023-05-15T09:22:54.604Z,0.00
2023-05-15T09:23:54.461Z,0.00
2023-05-15T09:24:54.577Z,0.00
2023-05-15T09:25:55.207Z,0.00
2023-05-15T09:26:54.462Z,0.00
2023-05-15T09:27:54.415Z,0.00
2023-05-15T09:28:54.347Z,0.00
2023-05-15T09:29:54.516Z,0.00
2023-05-15T09:30:55.322Z,0.00
2023-05-15T09:31:54.481Z,0.00
2023-05-15T09:32:54.467Z,0.00
2023-05-15T09:33:54.476Z,0.00
2023-05-15T09:34:54.752Z,0.00
2023-05-15T09:35:54.463Z,0.00
2023-05-15T09:36:54.474Z,0.00
2023-05-15T09:37:54.461Z,0.00
2023-05-15T09:38:54.362Z,0.00
2023-05-15T09:39:54.427Z,0.00
2023-05-15T09:40:54.382Z,0.00
2023-05-15T09:41:54.539Z,0.00
2023-05-15T09:42:54.312Z,0.00
2023-05-15T09:43:54.604Z,0.00
2023-05-15T09:44:54.897Z,0.00
2023-05-15T09:45:55.475Z,0.00
2023-05-15T09:46:55.303Z,0.00
2023-05-15T09:47:54.507Z,0.00
2023-05-15T09:48:54.424Z,0.00
2023-05-15T09:49:54.331Z,0.00
2023-05-15T09:50:54.310Z,0.00
2023-05-15T09:51:54.374Z,0.00
2023-05-15T09:52:54.283Z,0.00
2023-05-15T09:53:55.463Z,0.00
2023-05-15T09:54:54.385Z,0.00
2023-05-15T09:55:54.404Z,25.45
2023-05-15T09:56:54.325Z,0.00
2023-05-15T09:57:54.317Z,0.00
2023-05-15T09:58:54.888Z,0.00
2023-05-15T09:59:54.915Z,0.00
2023-05-15T10:00:54.646Z,0.00
2023-05-15T10:01:54.685Z,0.00
2023-05-15T10:02:54.706Z,0.00
2023-05-15T10:03:54.709Z,0.00
2023-05-15T10:04:56.479Z,0.00
2023-05-15T10:05:54.536Z,0.00
2023-05-15T10:06:54.673Z,0.00
2023-05-15T10:07:54.654Z,0.00
2023-05-15T10:08:54.592Z,0.00
2023-05-15T10:09:54.602Z,0.00
2023-05-15T10:10:54.603Z,0.00
2023-05-15T10:11:54.587Z,0.00
2023-05-15T10:12:54.592Z,0.00
2023-05-15T10:13:54.634Z,0.00
2023-05-15T10:14:54.584Z,0.00
2023-05-15T10:15:55.280Z,0.00
2023-05-15T10:16:54.615Z,0.00
2023-05-15T10:17:54.574Z,0.00
2023-05-15T10:18:55.400Z,0.00
2023-05-15T10:19:58.345Z,0.00
2023-05-15T10:20:55.578Z,0.00
2023-05-15T10:21:54.503Z,0.00
2023-05-15T10:22:54.568Z,0.00
2023-05-15T10:23:54.739Z,0.00
2023-05-15T10:24:54.831Z,0.00
2023-05-15T10:25:54.577Z,0.00
2023-05-15T10:26:54.524Z,0.00
2023-05-15T10:27:54.617Z,0.00
2023-05-15T10:28:54.499Z,0.00
2023-05-15T10:29:54.827Z,0.00
2023-05-15T10:30:54.703Z,0.00
2023-05-15T10:31:54.664Z,0.00
2023-05-15T10:32:56.402Z,0.00
2023-05-15T10:33:55.492Z,0.00
2023-05-15T10:34:54.552Z,0.00
2023-05-15T10:35:54.588Z,0.00
2023-05-15T10:36:54.455Z,0.00
2023-05-15T10:37:55.477Z,0.00
2023-05-15T10:38:54.850Z,0.00
2023-05-15T10:39:54.727Z,0.00
2023-05-15T10:41:05.630Z,0.00
2023-05-15T10:41:56.593Z,0.00
2023-05-15T10:42:54.832Z,0.00
2023-05-15T10:43:54.718Z,0.00
2023-05-15T10:44:54.866Z,0.00
2023-05-15T10:45:55.244Z,0.00
2023-05-15T10:46:54.674Z,0.00
2023-05-15T10:47:54.732Z,0.00
2023-05-15T10:48:54.762Z,0.00
2023-05-15T10:49:54.680Z,0.00
2023-05-15T10:50:54.755Z,0.00
2023-05-15T10:51:54.771Z,0.00
2023-05-15T10:52:55.259Z,0.00
2023-05-15T10:53:54.656Z,0.00
2023-05-15T10:54:54.620Z,0.00
2023-05-15T10:55:55.370Z,0.00
2023-05-15T10:56:55.290Z,0.00
2023-05-15T10:57:54.625Z,0.00
2023-05-15T10:58:54.768Z,0.00
2023-05-15T10:59:54.655Z,0.00
2023-05-15T11:00:54.891Z,0.00
2023-05-15T11:01:54.573Z,0.00
2023-05-15T11:02:55.307Z,0.00
2023-05-15T11:04:54.689Z,0.00
2023-05-15T11:05:54.693Z,0.00
2023-05-15T11:06:54.585Z,0.00
2023-05-15T11:07:55.252Z,0.00
2023-05-15T11:08:54.616Z,0.00
2023-05-15T11:09:55.270Z,0.00
2023-05-15T11:10:54.907Z,0.00
2023-05-15T11:11:54.609Z,0.00
2023-05-15T11:12:54.442Z,0.00
2023-05-15T11:13:54.619Z,0.00
2023-05-15T11:14:54.539Z,0.00
2023-05-15T11:15:54.861Z,0.00
2023-05-15T11:16:54.557Z,0.00
2023-05-15T11:17:54.502Z,0.00
2023-05-15T11:18:54.671Z,0.00
2023-05-15T11:19:54.463Z,0.00
2023-05-15T11:20:54.547Z,0.00
2023-05-15T11:21:54.552Z,0.00
2023-05-15T11:22:54.510Z,0.00
2023-05-15T11:23:55.233Z,0.00
2023-05-15T11:24:54.597Z,0.00
2023-05-15T11:25:54.822Z,0.00
2023-05-15T11:26:56.115Z,0.00
2023-05-15T11:27:54.664Z,0.00
2023-05-15T11:28:54.833Z,0.00
2023-05-15T11:29:54.536Z,0.00
2023-05-15T11:30:55.007Z,0.00
2023-05-15T11:31:55.372Z,0.00
2023-05-15T11:32:55.416Z,0.00
2023-05-15T11:33:56.150Z,0.00
2023-05-15T11:34:54.905Z,0.00
2023-05-15T11:35:56.402Z,0.00
2023-05-15T11:36:55.741Z,0.00
2023-05-15T11:37:55.057Z,0.00
2023-05-15T11:38:55.993Z,0.00
2023-05-15T11:39:55.811Z,0.00
2023-05-15T11:40:55.436Z,0.00
2023-05-15T11:41:55.169Z,0.00
2023-05-15T11:42:55.111Z,0.00
2023-05-15T11:43:55.755Z,0.00
2023-05-15T11:44:56.267Z,0.00
2023-05-15T11:45:55.346Z,0.00
2023-05-15T11:46:55.906Z,0.00
2023-05-15T11:47:55.646Z,0.00
2023-05-15T11:48:55.616Z,0.00
2023-05-15T11:49:55.708Z,0.00
2023-05-15T11:50:55.767Z,0.00
2023-05-15T11:51:56.344Z,1.87
2023-05-15T11:52:55.582Z,51.35
2023-05-15T11:53:56.256Z,3.76
2023-05-15T11:54:55.569Z,0.00
2023-05-15T11:55:55.614Z,23.11
2023-05-15T11:56:55.581Z,7.23
2023-05-15T11:57:55.576Z,14.79
2023-05-15T11:58:55.558Z,0.00
2023-05-15T11:59:55.748Z,0.00
2023-05-15T12:00:56.258Z,0.00
2023-05-15T12:01:55.564Z,0.00
2023-05-15T12:02:56.273Z,0.00
2023-05-15T12:03:55.833Z,0.00
2023-05-15T12:04:56.346Z,0.00
2023-05-15T12:05:59.045Z,0.00
2023-05-15T12:06:55.601Z,0.00
2023-05-15T12:07:55.565Z,0.00
2023-05-15T12:08:55.439Z,0.00
2023-05-15T12:09:55.527Z,0.00
2023-05-15T12:10:55.514Z,0.00
2023-05-15T12:11:55.506Z,0.00
2023-05-15T12:12:55.486Z,0.00
2023-05-15T12:13:55.521Z,0.00
2023-05-15T12:14:55.447Z,0.00
2023-05-15T12:15:55.468Z,0.00
2023-05-15T12:16:56.321Z,0.00
2023-05-15T12:17:56.255Z,0.00
2023-05-15T12:18:55.524Z,0.00
2023-05-15T12:19:55.359Z,0.00
2023-05-15T12:20:55.400Z,0.00
2023-05-15T12:21:55.518Z,0.00
2023-05-15T12:22:55.356Z,0.00
2023-05-15T12:24:07.173Z,0.00
2023-05-15T12:24:56.320Z,0.00
2023-05-15T12:25:55.427Z,0.00
2023-05-15T12:26:57.492Z,0.00
2023-05-15T12:27:55.273Z,0.00
2023-05-15T12:28:56.228Z,0.00
2023-05-15T12:29:55.373Z,0.00
2023-05-15T12:30:55.386Z,0.00
2023-05-15T12:31:55.478Z,0.00
2023-05-15T12:32:55.323Z,0.00
2023-05-15T12:33:55.319Z,0.00
2023-05-15T12:34:55.242Z,0.00
2023-05-15T12:35:56.758Z,0.00
2023-05-15T12:36:55.540Z,0.00
2023-05-15T12:37:55.205Z,0.00
2023-05-15T12:38:55.202Z,0.00
2023-05-15T12:39:55.328Z,0.00
2023-05-15T12:40:55.732Z,0.00
2023-05-15T12:41:55.290Z,0.00
2023-05-15T12:42:55.723Z,0.00
2023-05-15T12:43:55.247Z,0.00
2023-05-15T12:44:55.298Z,0.00
2023-05-15T12:45:56.191Z,0.00
2023-05-15T12:46:55.335Z,0.00
2023-05-15T12:47:55.356Z,0.00
2023-05-15T12:48:55.839Z,0.00
2023-05-15T12:49:55.334Z,0.00
2023-05-15T12:50:55.788Z,0.00
2023-05-15T12:51:55.280Z,0.00
2023-05-15T12:52:55.219Z,0.00
2023-05-15T12:53:55.393Z,0.00
2023-05-15T12:54:55.176Z,0.00
2023-05-15T12:55:55.864Z,0.00
2023-05-15T12:56:56.985Z,0.00
2023-05-15T12:57:55.256Z,0.00
2023-05-15T12:58:55.186Z,0.00
2023-05-15T12:59:55.200Z,0.00
2023-05-15T13:00:55.770Z,0.00